KSAC

Sacramento Executive Airport

Sacramento, California, USA
METAR KSAC 201153Z AUTO 30004KT 10SM CLR 04/02 A3008 RMK AO2 SLP187 T00440022 10072 20044 50002
Observed Flight Rules
Jan-20 @ 11:53 UTC (an hour ago) Visual Flight Rules
Wind Visibility Clouds
300° at 4 knots 10 miles
  • Clear skies
Temperatures Readings
Current 4°C / 39°F
Dewpoint 2°C / 36°F
Humidity 87%
Altimeter 30.08" Hg
Pressure 1018.7 hPa
Elevation 11
METAR KSAC 201153Z AUTO 30004KT 10SM CLR 04/02 A3008 RMK AO2 SLP187 T00440022 10072 20044 50002
Observed Flight Rules
Jan-20 @ 11:53 UTC
(an hour ago)
VFR
Wind Visibility
300° at 4 knots 10 miles
Clouds
  • Clear skies
Temperature Dewpoint
4°C / 39°F 2°C / 36°F
Humidity Altimeter Pressure
87% 30.08" Hg 1018.7 hPa